| time (UTC) | temp F | wind direction | speed MPH | gust MPH | rain 1hr in | rain 24hr in | rain mn in | humidity % | barometer mb |
| 20260901092552 | 53 | 205 | 5.0 | 7.0 | 0.00 | 0.01 | 0.00 | 1 | 1010.6 |
| 20260901092050 | 53 | 205 | 5.0 | 6.0 | 0.00 | 0.01 | 0.00 | 1 | 1010.7 |
| 20260901091553 | 53 | 205 | 4.0 | 7.0 | 0.00 | 0.01 | 0.00 | 1 | 1010.7 |
| 20260901091049 | 54 | 205 | 5.0 | 8.0 | 0.00 | 0.01 | 0.00 | 1 | 1010.7 |
| 20260901090545 | 54 | 199 | 6.0 | 9.0 | 0.00 | 0.01 | 0.00 | 1 | 1010.7 |
| 20260901090044 | 54 | 207 | 6.0 | 9.0 | 0.00 | 0.01 | 0.00 | 1 | 1010.6 |
| 20260901085542 | 54 | 211 | 6.0 | 8.0 | 0.00 | 0.01 | 0.00 | 1 | 1010.6 |
| 20260901085041 | 54 | 208 | 6.0 | 9.0 | 0.00 | 0.01 | 0.00 | 1 | 1010.6 |
| 20260901084540 | 54 | 197 | 7.0 | 9.0 | 0.00 | 0.01 | 0.00 | 1 | 1010.5 |
| 20260901084039 | 54 | 197 | 4.0 | 9.0 | 0.00 | 0.01 | 0.00 | 1 | 1010.5 |
| 20260901083537 | 54 | 196 | 6.0 | 10.0 | 0.00 | 0.01 | 0.00 | 1 | 1010.6 |
| 20260901083036 | 54 | 199 | 7.0 | 10.0 | 0.00 | 0.01 | 0.00 | 1 | 1010.7 |
| 20260901082533 | 54 | 199 | 7.0 | 10.0 | 0.00 | 0.01 | 0.00 | 1 | 1010.7 |
| 20260901082032 | 54 | 204 | 6.0 | 10.0 | 0.00 | 0.01 | 0.00 | 1 | 1010.7 |
| 20260901081538 | 55 | 209 | 7.0 | 10.0 | 0.00 | 0.01 | 0.00 | 1 | 1010.8 |
| 20260901081029 | 54 | 202 | 8.0 | 10.0 | 0.00 | 0.01 | 0.00 | 1 | 1010.9 |
| 20260901080531 | 54 | 196 | 7.0 | 10.0 | 0.00 | 0.01 | 0.00 | 1 | 1010.9 |
| 20260901080516 | 54 | 197 | 7.0 | 10.0 | 0.00 | 0.01 | 0.00 | 1 | 1010.9 |
| 20260901080010 | 54 | 197 | 8.0 | 10.0 | 0.00 | 0.01 | 0.00 | 1 | 1010.8 |
| 20260901075508 | 54 | 195 | 8.0 | 10.0 | 0.00 | 0.01 | 0.00 | 1 | 1010.8 |
| 20260901075010 | 54 | 183 | 7.0 | 10.0 | 0.00 | 0.01 | 0.00 | 1 | 1010.8 |
| 20260901074505 | 54 | 202 | 7.0 | 10.0 | 0.00 | 0.01 | 0.00 | 1 | 1010.9 |
| 20260901074003 | 55 | 195 | 8.0 | 10.0 | 0.00 | 0.01 | 0.00 | 1 | 1011.0 |
| 20260901073502 | 55 | 214 | 8.0 | 11.0 | 0.00 | 0.01 | 0.00 | 1 | 1011.0 |
| 20260901073102 | 55 | 206 | 8.0 | 14.0 | 0.00 | 0.01 | 0.00 | 1 | 1010.9 |
| 20260901072559 | 55 | 220 | 9.0 | 14.0 | 0.00 | 0.01 | 0.00 | 1 | 1011.0 |
| 20260901072059 | 55 | 221 | 8.0 | 11.0 | 0.00 | 0.01 | 0.00 | 1 | 1011.0 |
| 20260901071557 | 55 | 205 | 9.0 | 12.0 | 0.00 | 0.01 | 0.00 | 1 | 1010.9 |
| 20260901071056 | 55 | 224 | 10.0 | 12.0 | 0.00 | 0.01 | 0.00 | 1 | 1010.9 |
| 20260901070554 | 55 | 212 | 10.0 | 13.0 | 0.00 | 0.01 | 0.00 | 1 | 1011.0 |
| 20260901070053 | 55 | 228 | 8.0 | 11.0 | 0.00 | 0.01 | 0.00 | 1 | 1010.9 |
| 20260901065550 | 55 | 209 | 8.0 | 11.0 | 0.00 | 0.01 | 0.00 | 1 | 1011.1 |
| 20260901065049 | 55 | 207 | 8.0 | 11.0 | 0.00 | 0.01 | 0.00 | 1 | 1011.0 |
| 20260901064548 | 55 | 204 | 8.0 | 11.0 | 0.00 | 0.01 | 0.00 | 1 | 1011.1 |
| 20260901064045 | 55 | 211 | 8.0 | 10.0 | 0.00 | 0.01 | 0.00 | 1 | 1011.1 |
| 20260901063544 | 56 | 210 | 7.0 | 10.0 | 0.00 | 0.01 | 0.00 | 1 | 1011.1 |
| 20260901063045 | 56 | 210 | 8.0 | 10.0 | 0.00 | 0.01 | 0.00 | 1 | 1011.1 |
| 20260901062545 | 56 | 207 | 6.0 | 9.0 | 0.00 | 0.01 | 0.00 | 1 | 1011.1 |
| 20260901062040 | 57 | 201 | 7.0 | 11.0 | 0.00 | 0.01 | 0.00 | 1 | 1011.0 |
| 20260901061539 | 57 | 199 | 7.0 | 11.0 | 0.00 | 0.01 | 0.00 | 1 | 1011.0 |
| 20260901061038 | 57 | 211 | 9.0 | 10.0 | 0.00 | 0.01 | 0.00 | 1 | 1011.0 |
| 20260901060535 | 57 | 189 | 7.0 | 10.0 | 0.00 | 0.01 | 0.00 | 1 | 1011.1 |
| 20260901060035 | 57 | 215 | 6.0 | 9.0 | 0.00 | 0.01 | 0.00 | 1 | 1011.2 |
| 20260901055534 | 57 | 202 | 7.0 | 11.0 | 0.00 | 0.01 | 0.01 | 1 | 1011.1 |
| 20260901055035 | 57 | 206 | 8.0 | 11.0 | 0.00 | 0.01 | 0.01 | 1 | 1011.2 |
| 20260901054535 | 57 | 203 | 7.0 | 11.0 | 0.00 | 0.01 | 0.01 | 1 | 1011.2 |
| 20260901054034 | 57 | 201 | 8.0 | 11.0 | 0.00 | 0.01 | 0.01 | 1 | 1011.2 |
| 20260901053534 | 57 | 213 | 8.0 | 11.0 | 0.00 | 0.01 | 0.01 | 1 | 1011.2 |
| 20260901053034 | 57 | 203 | 8.0 | 11.0 | 0.00 | 0.01 | 0.01 | 1 | 1011.2 |
| 20260901052533 | 58 | 198 | 8.0 | 12.0 | 0.00 | 0.01 | 0.01 | 1 | 1011.2 |
| 20260901052033 | 58 | 201 | 9.0 | 12.0 | 0.00 | 0.01 | 0.01 | 1 | 1011.1 |
| 20260901051535 | 58 | 196 | 9.0 | 12.0 | 0.00 | 0.01 | 0.01 | 1 | 1011.1 |
| 20260901051033 | 58 | 171 | 8.0 | 12.0 | 0.00 | 0.01 | 0.01 | 1 | 1011.2 |
| 20260901050529 | 58 | 176 | 8.0 | 11.0 | 0.00 | 0.01 | 0.01 | 1 | 1011.3 |
| 20260901050028 | 58 | 164 | 9.0 | 11.0 | 0.00 | 0.01 | 0.01 | 1 | 1011.3 |
| 20260901045527 | 58 | 180 | 8.0 | 12.0 | 0.00 | 0.01 | 0.01 | 1 | 1011.3 |
| 20260901045025 | 58 | 168 | 7.0 | 12.0 | 0.00 | 0.01 | 0.01 | 1 | 1011.4 |
| 20260901044527 | 59 | 174 | 5.0 | 10.0 | 0.00 | 0.01 | 0.01 | 1 | 1011.5 |
| 20260901044023 | 59 | 151 | 7.0 | 13.0 | 0.00 | 0.01 | 0.01 | 1 | 1011.4 |
| 20260901043521 | 59 | 157 | 9.0 | 14.0 | 0.00 | 0.01 | 0.01 | 1 | 1011.5 |
| 20260901043023 | 59 | 142 | 9.0 | 14.0 | 0.00 | 0.01 | 0.01 | 1 | 1011.6 |
| 20260901042518 | 58 | 130 | 8.0 | 12.0 | 0.00 | 0.01 | 0.01 | 1 | 1011.6 |
| 20260901042016 | 58 | 163 | 6.0 | 9.0 | 0.00 | 0.01 | 0.01 | 1 | 1011.6 |
| 20260901041516 | 58 | 180 | 5.0 | 10.0 | 0.00 | 0.01 | 0.01 | 1 | 1011.6 |
| 20260901041014 | 59 | 165 | 6.0 | 11.0 | 0.00 | 0.01 | 0.01 | 1 | 1011.6 |
| 20260901040513 | 59 | 179 | 8.0 | 15.0 | 0.00 | 0.01 | 0.01 | 1 | 1011.6 |
| 20260901040012 | 59 | 168 | 8.0 | 15.0 | 0.00 | 0.01 | 0.01 | 1 | 1011.6 |
| 20260901035509 | 59 | 149 | 11.0 | 18.0 | 0.00 | 0.01 | 0.01 | 1 | 1011.5 |
| 20260901035008 | 58 | 140 | 10.0 | 17.0 | 0.00 | 0.01 | 0.01 | 1 | 1011.5 |
| 20260901034515 | 58 | 157 | 6.0 | 9.0 | 0.00 | 0.01 | 0.01 | 1 | 1011.5 |
| 20260901034004 | 58 | 192 | 5.0 | 10.0 | 0.00 | 0.01 | 0.01 | 1 | 1011.7 |
| 20260901033503 | 58 | 203 | 6.0 | 15.0 | 0.00 | 0.01 | 0.01 | 1 | 1011.7 |
| 20260901033006 | 58 | 173 | 8.0 | 14.0 | 0.00 | 0.01 | 0.01 | 1 | 1011.6 |
| 20260901032601 | 58 | 195 | 10.0 | 14.0 | 0.00 | 0.01 | 0.01 | 1 | 1011.5 |
| 20260901032058 | 58 | 183 | 8.0 | 12.0 | 0.00 | 0.01 | 0.01 | 1 | 1011.4 |
| 20260901031557 | 58 | 207 | 10.0 | 14.0 | 0.00 | 0.01 | 0.01 | 1 | 1011.4 |
| 20260901031056 | 57 | 184 | 9.0 | 12.0 | 0.00 | 0.01 | 0.01 | 1 | 1011.3 |
| 20260901030555 | 58 | 175 | 8.0 | 13.0 | 0.00 | 0.01 | 0.01 | 1 | 1011.2 |
| 20260901030053 | 58 | 201 | 9.0 | 14.0 | 0.00 | 0.01 | 0.01 | 1 | 1011.2 |
| 20260901025551 | 58 | 193 | 11.0 | 15.0 | 0.00 | 0.01 | 0.01 | 1 | 1011.2 |
| 20260901025050 | 58 | 187 | 10.0 | 15.0 | 0.00 | 0.01 | 0.01 | 1 | 1011.1 |
| 20260901024548 | 58 | 176 | 11.0 | 15.0 | 0.00 | 0.01 | 0.01 | 1 | 1011.1 |
| 20260901024048 | 58 | 191 | 10.0 | 18.0 | 0.00 | 0.01 | 0.01 | 1 | 1011.0 |
| 20260901023545 | 59 | 203 | 11.0 | 18.0 | 0.00 | 0.01 | 0.01 | 1 | 1011.0 |
| 20260901023044 | 59 | 178 | 11.0 | 21.0 | 0.00 | 0.01 | 0.01 | 1 | 1010.9 |
| 20260901022542 | 59 | 189 | 14.0 | 22.0 | 0.00 | 0.01 | 0.01 | 1 | 1010.9 |
| 20260901022041 | 59 | 158 | 13.0 | 22.0 | 0.00 | 0.01 | 0.01 | 1 | 1010.8 |
| 20260901021539 | 60 | 186 | 15.0 | 23.0 | 0.00 | 0.01 | 0.01 | 1 | 1010.6 |
| 20260901021038 | 60 | 167 | 15.0 | 23.0 | 0.00 | 0.01 | 0.01 | 1 | 1010.5 |
| 20260901020536 | 61 | 176 | 13.0 | 21.0 | 0.00 | 0.01 | 0.01 | 6 | 1010.5 |
| 20260901020035 | 61 | 194 | 13.0 | 16.0 | 0.00 | 0.01 | 0.01 | 6 | 1010.4 |
| 20260901015532 | 61 | 209 | 12.0 | 18.0 | 0.00 | 0.01 | 0.01 | 9 | 1010.4 |
| 20260901015034 | 61 | 197 | 13.0 | 18.0 | 0.00 | 0.01 | 0.01 | 12 | 1010.4 |
| 20260901014530 | 61 | 181 | 10.0 | 16.0 | 0.00 | 0.01 | 0.01 | 19 | 1010.4 |
| 20260901014033 | 62 | 195 | 8.0 | 20.0 | 0.00 | 0.01 | 0.01 | 26 | 1010.3 |
| 20260901013528 | 62 | 171 | 8.0 | 20.0 | 0.00 | 0.01 | 0.01 | 27 | 1010.3 |
| 20260901013039 | 62 | 149 | 9.0 | 18.0 | 0.00 | 0.01 | 0.01 | 25 | 1010.3 |
| 20260901012525 | 62 | 189 | 11.0 | 18.0 | 0.00 | 0.01 | 0.01 | 23 | 1010.4 |
| 20260901012027 | 62 | 192 | 11.0 | 16.0 | 0.00 | 0.01 | 0.01 | 23 | 1010.3 |
| 20260901011533 | 62 | 202 | 9.0 | 14.0 | 0.00 | 0.01 | 0.01 | 24 | 1010.4 |
| 20260901011020 | 62 | 186 | 8.0 | 15.0 | 0.00 | 0.01 | 0.01 | 23 | 1010.4 |
| 20260901010520 | 62 | 144 | 11.0 | 17.0 | 0.00 | 0.01 | 0.01 | 22 | 1010.5 |
| 20260901010017 | 62 | 155 | 13.0 | 18.0 | 0.00 | 0.01 | 0.01 | 22 | 1010.5 |
| 20260901005514 | 62 | 147 | 13.0 | 18.0 | 0.00 | 0.01 | 0.01 | 20 | 1010.5 |
| 20260901005013 | 63 | 142 | 12.0 | 21.0 | 0.00 | 0.01 | 0.01 | 21 | 1010.7 |
| 20260901004512 | 63 | 114 | 16.0 | 21.0 | 0.00 | 0.01 | 0.01 | 23 | 1010.8 |
| 20260901004011 | 62 | 103 | 13.0 | 19.0 | 0.00 | 0.01 | 0.01 | 20 | 1010.8 |
| 20260901003509 | 62 | 97 | 13.0 | 19.0 | 0.00 | 0.01 | 0.01 | 14 | 1010.8 |
| 20260901003008 | 62 | 120 | 13.0 | 21.0 | 0.00 | 0.01 | 0.01 | 10 | 1010.7 |
| 20260901002506 | 62 | 116 | 12.0 | 19.0 | 0.00 | 0.01 | 0.01 | 6 | 1010.7 |
| 20260901002005 | 62 | 120 | 11.0 | 23.0 | 0.00 | 0.01 | 0.01 | 6 | 1010.5 |
| 20260901001503 | 62 | 98 | 17.0 | 23.0 | 0.00 | 0.01 | 0.01 | 11 | 1010.5 |
| 20260901001001 | 62 | 111 | 11.0 | 20.0 | 0.00 | 0.01 | 0.01 | 15 | 1010.4 |
| 20260901000600 | 62 | 113 | 14.0 | 21.0 | 0.00 | 0.01 | 0.01 | 16 | 1010.3 |
| 20260901000100 | 63 | 101 | 13.0 | 21.0 | 0.00 | 0.01 | 0.01 | 23 | 1010.0 |
| 20260831235600 | 63 | 100 | 12.0 | 25.0 | 0.00 | 0.01 | 0.01 | 30 | 1010.1 |
| 20260831235056 | 63 | 107 | 12.0 | 25.0 | 0.00 | 0.01 | 0.01 | 35 | 1010.0 |
| 20260831234557 | 64 | 113 | 15.0 | 32.0 | 0.00 | 0.01 | 0.01 | 37 | 1009.7 |
| 20260831234053 | 64 | 108 | 23.0 | 32.0 | 0.00 | 0.01 | 0.01 | 45 | 1009.4 |
| 20260831233550 | 65 | 113 | 18.0 | 35.0 | 0.01 | 0.01 | 0.01 | 49 | 1009.4 |
| 20260831233049 | 67 | 122 | 21.0 | 35.0 | 0.01 | 0.01 | 0.01 | 53 | 1009.0 |
| 20260831232547 | 67 | 116 | 22.0 | 35.0 | 0.01 | 0.01 | 0.01 | 52 | 1008.8 |
| 20260831232046 | 68 | 128 | 26.0 | 39.0 | 0.01 | 0.01 | 0.01 | 52 | 1008.6 |
| 20260831231546 | 67 | 140 | 27.0 | 39.0 | 0.01 | 0.01 | 0.01 | 52 | 1008.5 |
| 20260831231043 | 67 | 109 | 21.0 | 37.0 | 0.01 | 0.01 | 0.01 | 50 | 1008.5 |
| 20260831230543 | 67 | 119 | 28.0 | 37.0 | 0.01 | 0.01 | 0.01 | 53 | 1008.3 |
| 20260831230041 | 67 | 100 | 21.0 | 37.0 | 0.01 | 0.01 | 0.01 | 52 | 1008.3 |
| 20260831225538 | 68 | 106 | 26.0 | 37.0 | 0.01 | 0.01 | 0.01 | 52 | 1008.0 |
| 20260831225037 | 69 | 108 | 21.0 | 38.0 | 0.01 | 0.01 | 0.01 | 52 | 1007.7 |
| 20260831224536 | 68 | 126 | 26.0 | 38.0 | 0.01 | 0.01 | 0.01 | 52 | 1006.9 |
| 20260831224037 | 71 | 90 | 27.0 | 37.0 | 0.01 | 0.01 | 0.01 | 52 | 1006.9 |
| 20260831223534 | 72 | 111 | 11.0 | 16.0 | 0.00 | 0.00 | 0.00 | 51 | 1006.7 |
| 20260831223034 | 72 | 126 | 1.0 | 6.0 | 0.00 | 0.00 | 0.00 | 52 | 1006.5 |
| 20260831222534 | 72 | 78 | 2.0 | 6.0 | 0.00 | 0.00 | 0.00 | 52 | 1006.3 |
| 20260831222033 | 72 | 78 | 4.0 | 8.0 | 0.00 | 0.00 | 0.00 | 52 | 1006.2 |
| 20260831221532 | 72 | 59 | 3.0 | 8.0 | 0.00 | 0.00 | 0.00 | 51 | 1006.1 |
| 20260831221031 | 72 | 355 | 2.0 | 10.0 | 0.00 | 0.00 | 0.00 | 51 | 1006.1 |
| 20260831220531 | 72 | 259 | 7.0 | 10.0 | 0.00 | 0.00 | 0.00 | 52 | 1006.2 |
| 20260831220031 | 72 | 305 | 8.0 | 10.0 | 0.00 | 0.00 | 0.00 | 52 | 1006.0 |
| 20260831215530 | 73 | 242 | 2.0 | 8.0 | 0.00 | 0.00 | 0.00 | 52 | 1006.1 |
| 20260831215034 | 72 | 257 | 4.0 | 9.0 | 0.00 | 0.00 | 0.00 | 51 | 1006.2 |
| 20260831214528 | 73 | 28 | 4.0 | 11.0 | 0.00 | 0.00 | 0.00 | 52 | 1006.1 |
| 20260831214027 | 73 | 345 | 6.0 | 11.0 | 0.00 | 0.00 | 0.00 | 52 | 1006.1 |
| 20260831213530 | 72 | 311 | 8.0 | 12.0 | 0.00 | 0.00 | 0.00 | 52 | 1006.1 |
| 20260831213026 | 72 | 299 | 9.0 | 12.0 | 0.00 | 0.00 | 0.00 | 51 | 1006.1 |
| 20260831212523 | 72 | 312 | 4.0 | 9.0 | 0.00 | 0.00 | 0.00 | 51 | 1006.1 |
| 20260831212022 | 73 | 319 | 4.0 | 9.0 | 0.00 | 0.00 | 0.00 | 51 | 1006.1 |
| 20260831211521 | 73 | 281 | 4.0 | 10.0 | 0.00 | 0.00 | 0.00 | 52 | 1006.0 |
| 20260831211020 | 74 | 258 | 5.0 | 18.0 | 0.00 | 0.00 | 0.00 | 52 | 1006.0 |
| 20260831210517 | 76 | 286 | 13.0 | 18.0 | 0.00 | 0.00 | 0.00 | 50 | 1005.9 |
| 20260831210016 | 78 | 105 | 0.0 | 10.0 | 0.00 | 0.00 | 0.00 | 45 | 1006.0 |
| 20260831205514 | 80 | 360 | 5.0 | 13.0 | 0.00 | 0.00 | 0.00 | 44 | 1005.9 |
| 20260831205013 | 80 | 98 | 6.0 | 13.0 | 0.00 | 0.00 | 0.00 | 41 | 1005.7 |
| 20260831204511 | 80 | 119 | 6.0 | 13.0 | 0.00 | 0.00 | 0.00 | 40 | 1005.7 |
| 20260831204013 | 80 | 117 | 4.0 | 13.0 | 0.00 | 0.00 | 0.00 | 42 | 1005.7 |
| 20260831203509 | 80 | 138 | 6.0 | 12.0 | 0.00 | 0.00 | 0.00 | 42 | 1005.6 |
| 20260831203006 | 81 | 154 | 9.0 | 15.0 | 0.00 | 0.00 | 0.00 | 41 | 1005.7 |
| 20260831202505 | 81 | 99 | 9.0 | 16.0 | 0.00 | 0.00 | 0.00 | 41 | 1005.9 |
| 20260831202004 | 81 | 118 | 11.0 | 16.0 | 0.00 | 0.00 | 0.00 | 40 | 1005.9 |
| 20260831201507 | 81 | 139 | 6.0 | 11.0 | 0.00 | 0.00 | 0.00 | 40 | 1006.0 |
| 20260831201002 | 81 | 130 | 7.0 | 12.0 | 0.00 | 0.00 | 0.00 | 42 | 1006.0 |
| 20260831200600 | 81 | 130 | 4.0 | 15.0 | 0.00 | 0.00 | 0.00 | 42 | 1006.0 |
| 20260831200139 | 80 | 169 | 7.0 | 15.0 | 0.00 | 0.00 | 0.00 | 42 | 1006.1 |
| 20260831195557 | 81 | 110 | 4.0 | 13.0 | 0.00 | 0.00 | 0.00 | 40 | 1006.2 |
| 20260831195054 | 81 | 74 | 8.0 | 13.0 | 0.00 | 0.00 | 0.00 | 41 | 1006.3 |
| 20260831194559 | 81 | 149 | 8.0 | 16.0 | 0.00 | 0.00 | 0.00 | 41 | 1006.5 |
| 20260831194052 | 81 | 117 | 9.0 | 16.0 | 0.00 | 0.00 | 0.00 | 41 | 1006.6 |
| 20260831193550 | 81 | 101 | 8.0 | 13.0 | 0.00 | 0.00 | 0.00 | 40 | 1006.8 |
| 20260831193049 | 82 | 141 | 9.0 | 14.0 | 0.00 | 0.00 | 0.00 | 41 | 1006.9 |
| 20260831192549 | 82 | 147 | 10.0 | 14.0 | 0.00 | 0.00 | 0.00 | 42 | 1007.0 |
| 20260831192045 | 81 | 165 | 6.0 | 15.0 | 0.00 | 0.00 | 0.00 | 44 | 1007.0 |
| 20260831191546 | 80 | 181 | 9.0 | 13.0 | 0.00 | 0.00 | 0.00 | 45 | 1007.2 |
| 20260831191043 | 80 | 174 | 6.0 | 13.0 | 0.00 | 0.00 | 0.00 | 45 | 1007.1 |
| 20260831190541 | 80 | 144 | 8.0 | 13.0 | 0.00 | 0.00 | 0.00 | 47 | 1007.3 |
| 20260831190042 | 80 | 147 | 7.0 | 12.0 | 0.00 | 0.00 | 0.00 | 48 | 1007.4 |
| 20260831185538 | 79 | 156 | 8.0 | 12.0 | 0.00 | 0.00 | 0.00 | 48 | 1007.5 |
| 20260831185036 | 79 | 172 | 7.0 | 14.0 | 0.00 | 0.00 | 0.00 | 48 | 1007.6 |
| 20260831184535 | 78 | 172 | 7.0 | 12.0 | 0.00 | 0.00 | 0.00 | 49 | 1007.8 |
| 20260831184033 | 78 | 137 | 8.0 | 12.0 | 0.00 | 0.00 | 0.00 | 49 | 1008.0 |
| 20260831183533 | 78 | 175 | 6.0 | 14.0 | 0.00 | 0.00 | 0.00 | 49 | 1008.1 |
| 20260831183031 | 78 | 181 | 8.0 | 14.0 | 0.00 | 0.00 | 0.00 | 48 | 1008.3 |
| 20260831182530 | 78 | 145 | 7.0 | 11.0 | 0.00 | 0.00 | 0.00 | 49 | 1008.3 |
| 20260831182028 | 77 | 178 | 7.0 | 12.0 | 0.00 | 0.00 | 0.00 | 49 | 1008.5 |
| 20260831181530 | 77 | 145 | 6.0 | 13.0 | 0.00 | 0.00 | 0.00 | 50 | 1008.6 |
| 20260831181025 | 77 | 180 | 10.0 | 15.0 | 0.00 | 0.00 | 0.00 | 49 | 1008.8 |
| 20260831180524 | 77 | 145 | 8.0 | 17.0 | 0.00 | 0.00 | 0.00 | 49 | 1008.9 |
| 20260831180022 | 76 | 168 | 9.0 | 17.0 | 0.00 | 0.00 | 0.00 | 50 | 1009.0 |
| 20260831175520 | 76 | 168 | 9.0 | 14.0 | 0.00 | 0.00 | 0.00 | 50 | 1009.2 |
| 20260831175019 | 75 | 174 | 9.0 | 15.0 | 0.00 | 0.00 | 0.00 | 50 | 1009.3 |
| 20260831174517 | 75 | 195 | 10.0 | 16.0 | 0.00 | 0.00 | 0.00 | 51 | 1009.3 |
| 20260831174017 | 75 | 165 | 10.0 | 17.0 | 0.00 | 0.00 | 0.00 | 51 | 1009.4 |
| 20260831173515 | 74 | 140 | 10.0 | 17.0 | 0.00 | 0.00 | 0.00 | 51 | 1009.5 |
| 20260831173013 | 74 | 150 | 10.0 | 19.0 | 0.00 | 0.00 | 0.00 | 50 | 1009.5 |
| 20260831172511 | 74 | 138 | 10.0 | 19.0 | 0.00 | 0.00 | 0.00 | 50 | 1009.6 |
| 20260831172011 | 74 | 150 | 11.0 | 17.0 | 0.00 | 0.00 | 0.00 | 50 | 1009.7 |
| 20260831171509 | 74 | 149 | 8.0 | 13.0 | 0.00 | 0.00 | 0.00 | 49 | 1009.7 |
| 20260831171008 | 73 | 136 | 9.0 | 12.0 | 0.00 | 0.00 | 0.00 | 49 | 1009.9 |
| 20260831170507 | 73 | 172 | 9.0 | 17.0 | 0.00 | 0.00 | 0.00 | 47 | 1010.0 |
| 20260831170008 | 73 | 172 | 11.0 | 17.0 | 0.00 | 0.00 | 0.00 | 48 | 1010.0 |
| 20260831165503 | 73 | 164 | 9.0 | 15.0 | 0.00 | 0.00 | 0.00 | 47 | 1010.1 |
| 20260831165001 | 72 | 180 | 8.0 | 14.0 | 0.00 | 0.00 | 0.00 | 45 | 1010.1 |
| 20260831164601 | 71 | 147 | 9.0 | 14.0 | 0.00 | 0.00 | 0.00 | 43 | 1010.2 |
| 20260831164059 | 72 | 132 | 10.0 | 14.0 | 0.00 | 0.00 | 0.00 | 41 | 1010.2 |
| 20260831163600 | 72 | 139 | 9.0 | 11.0 | 0.00 | 0.00 | 0.00 | 33 | 1010.3 |
| 20260831163056 | 71 | 137 | 8.0 | 11.0 | 0.00 | 0.00 | 0.00 | 14 | 1010.3 |
| 20260831162555 | 70 | 172 | 7.0 | 12.0 | 0.00 | 0.00 | 0.00 | 1 | 1010.3 |
| 20260831162055 | 69 | 155 | 7.0 | 12.0 | 0.00 | 0.00 | 0.00 | 1 | 1010.3 |
| 20260831161552 | 68 | 131 | 7.0 | 12.0 | 0.00 | 0.00 | 0.00 | 1 | 1010.4 |
| 20260831161050 | 67 | 139 | 5.0 | 8.0 | 0.00 | 0.00 | 0.00 | 1 | 1010.2 |
| 20260831160549 | 67 | 157 | 6.0 | 10.0 | 0.00 | 0.00 | 0.00 | 1 | 1010.3 |
| 20260831160047 | 66 | 146 | 7.0 | 11.0 | 0.00 | 0.00 | 0.00 | 1 | 1010.5 |
| 20260831155546 | 65 | 179 | 5.0 | 10.0 | 0.00 | 0.00 | 0.00 | 1 | 1010.4 |
| 20260831155044 | 62 | 197 | 5.0 | 8.0 | 0.00 | 0.00 | 0.00 | 1 | 1010.5 |
| 20260831154545 | 60 | 189 | 1.0 | 4.0 | 0.00 | 0.00 | 0.00 | 1 | 1010.5 |
| 20260831154046 | 60 | 56 | 0.0 | 0.0 | 0.00 | 0.00 | 0.00 | 1 | 1010.5 |
| 20260831153541 | 59 | 56 | 0.0 | 0.0 | 0.00 | 0.00 | 0.00 | 1 | 1010.6 |
| 20260831153039 | 59 | 56 | 0.0 | 0.0 | 0.00 | 0.00 | 0.00 | 1 | 1010.6 |
| 20260831152538 | 59 | 56 | 0.0 | 0.0 | 0.00 | 0.00 | 0.00 | 1 | 1010.7 |
| 20260831152035 | 58 | 56 | 0.0 | 0.0 | 0.00 | 0.00 | 0.00 | 1 | 1010.6 |
| 20260831151534 | 57 | 56 | 0.0 | 0.0 | 0.00 | 0.00 | 0.00 | 1 | 1010.6 |
| 20260831151032 | 57 | 56 | 0.0 | 2.0 | 0.00 | 0.00 | 0.00 | 1 | 1010.7 |
| 20260831150531 | 56 | 56 | 0.0 | 5.0 | 0.00 | 0.00 | 0.00 | 1 | 1010.7 |
| 20260831150029 | 56 | 56 | 0.0 | 5.0 | 0.00 | 0.00 | 0.00 | 1 | 1010.7 |
| 20260831145527 | 55 | 66 | 0.0 | 4.0 | 0.00 | 0.00 | 0.00 | 1 | 1010.8 |
| 20260831145026 | 55 | 47 | 1.0 | 4.0 | 0.00 | 0.00 | 0.00 | 1 | 1010.8 |
| 20260831144525 | 55 | 95 | 1.0 | 6.0 | 0.00 | 0.00 | 0.00 | 1 | 1010.7 |
| 20260831144025 | 54 | 95 | 1.0 | 6.0 | 0.00 | 0.00 | 0.00 | 1 | 1010.7 |
| 20260831143523 | 54 | 110 | 3.0 | 6.0 | 0.00 | 0.00 | 0.00 | 1 | 1010.7 |
| 20260831143022 | 54 | 114 | 1.0 | 4.0 | 0.00 | 0.00 | 0.00 | 1 | 1010.7 |
| 20260831142520 | 53 | 126 | 0.0 | 4.0 | 0.00 | 0.00 | 0.00 | 1 | 1010.7 |
| 20260831142019 | 53 | 184 | 0.0 | 3.0 | 0.00 | 0.00 | 0.00 | 1 | 1010.7 |
| 20260831141517 | 52 | 184 | 0.0 | 3.0 | 0.00 | 0.00 | 0.00 | 1 | 1010.6 |
| 20260831141015 | 51 | 184 | 0.0 | 1.0 | 0.00 | 0.00 | 0.00 | 1 | 1010.6 |
| 20260831140516 | 51 | 284 | 0.0 | 0.0 | 0.00 | 0.00 | 0.00 | 1 | 1010.6 |
| 20260831140029 | 50 | 284 | 0.0 | 0.0 | 0.00 | 0.00 | 0.00 | 1 | 1010.6 |
| 20260831135510 | 50 | 284 | 0.0 | 2.0 | 0.00 | 0.01 | 0.00 | 1 | 1010.4 |
| 20260831135009 | 50 | 284 | 0.0 | 2.0 | 0.00 | 0.01 | 0.00 | 1 | 1010.4 |
| 20260831134508 | 49 | 284 | 0.0 | 0.0 | 0.00 | 0.01 | 0.00 | 1 | 1010.4 |
| 20260831134007 | 49 | 284 | 0.0 | 1.0 | 0.00 | 0.01 | 0.00 | 1 | 1010.3 |
| 20260831133504 | 48 | 284 | 0.0 | 4.0 | 0.00 | 0.01 | 0.00 | 1 | 1010.2 |
| 20260831133003 | 48 | 284 | 1.0 | 4.0 | 0.00 | 0.01 | 0.00 | 1 | 1010.2 |
| 20260831132502 | 47 | 284 | 0.0 | 3.0 | 0.00 | 0.01 | 0.00 | 1 | 1010.2 |
| 20260831132002 | 47 | 284 | 0.0 | 0.0 | 0.00 | 0.01 | 0.00 | 1 | 1010.1 |
| 20260831131602 | 48 | 284 | 0.0 | 0.0 | 0.00 | 0.01 | 0.00 | 1 | 1010.1 |
| 20260831131058 | 49 | 284 | 0.0 | 0.0 | 0.00 | 0.01 | 0.00 | 1 | 1010.1 |
| 20260831130557 | 48 | 284 | 0.0 | 0.0 | 0.00 | 0.01 | 0.00 | 1 | 1010.1 |
| 20260831130056 | 48 | 284 | 0.0 | 0.0 | 0.00 | 0.01 | 0.00 | 1 | 1009.9 |
| 20260831125554 | 49 | 284 | 0.0 | 0.0 | 0.00 | 0.01 | 0.00 | 1 | 1009.8 |
| 20260831125052 | 49 | 284 | 0.0 | 0.0 | 0.00 | 0.01 | 0.00 | 1 | 1009.8 |
| 20260831124550 | 49 | 284 | 0.0 | 0.0 | 0.00 | 0.01 | 0.00 | 1 | 1009.7 |
| 20260831124048 | 48 | 284 | 0.0 | 0.0 | 0.00 | 0.01 | 0.00 | 1 | 1009.6 |
| 20260831123547 | 48 | 284 | 0.0 | 0.0 | 0.00 | 0.01 | 0.00 | 1 | 1009.6 |
| 20260831123045 | 48 | 284 | 0.0 | 3.0 | 0.00 | 0.01 | 0.00 | 1 | 1009.5 |
| 20260831122545 | 48 | 284 | 0.0 | 3.0 | 0.00 | 0.01 | 0.00 | 1 | 1009.7 |
| 20260831122046 | 49 | 319 | 0.0 | 0.0 | 0.00 | 0.01 | 0.00 | 1 | 1009.6 |
| 20260831121546 | 50 | 333 | 0.0 | 2.0 | 0.00 | 0.01 | 0.00 | 1 | 1009.7 |
| 20260831121041 | 50 | 333 | 1.0 | 2.0 | 0.00 | 0.01 | 0.00 | 1 | 1009.8 |
| 20260831120539 | 51 | 30 | 0.0 | 3.0 | 0.00 | 0.01 | 0.00 | 1 | 1009.8 |
| 20260831120038 | 51 | 30 | 0.0 | 5.0 | 0.00 | 0.01 | 0.00 | 1 | 1009.8 |
| 20260831115536 | 51 | 8 | 3.0 | 5.0 | 0.00 | 0.01 | 0.00 | 1 | 1009.9 |
| 20260831115034 | 51 | 86 | 0.0 | 2.0 | 0.00 | 0.01 | 0.00 | 1 | 1009.8 |
| 20260831114533 | 50 | 204 | 0.0 | 2.0 | 0.00 | 0.01 | 0.00 | 1 | 1009.9 |
| 20260831114031 | 50 | 204 | 0.0 | 2.0 | 0.00 | 0.01 | 0.00 | 1 | 1010.0 |
| 20260831113530 | 49 | 204 | 0.0 | 4.0 | 0.00 | 0.01 | 0.00 | 1 | 1010.0 |
| 20260831113029 | 48 | 204 | 0.0 | 5.0 | 0.00 | 0.01 | 0.00 | 1 | 1010.1 |
| 20260831112527 | 48 | 204 | 2.0 | 6.0 | 0.00 | 0.01 | 0.00 | 1 | 1010.0 |
| 20260831112025 | 48 | 204 | 4.0 | 6.0 | 0.00 | 0.01 | 0.00 | 1 | 1009.9 |
| 20260831111524 | 48 | 192 | 5.0 | 6.0 | 0.00 | 0.01 | 0.00 | 1 | 1009.9 |
| 20260831111022 | 47 | 172 | 3.0 | 4.0 | 0.00 | 0.01 | 0.00 | 1 | 1010.0 |
| 20260831110524 | 48 | 245 | 2.0 | 3.0 | 0.00 | 0.01 | 0.00 | 1 | 1009.9 |
| 20260831110020 | 50 | 245 | 0.0 | 0.0 | 0.00 | 0.01 | 0.00 | 1 | 1009.9 |
| 20260831105522 | 51 | 245 | 0.0 | 0.0 | 0.00 | 0.01 | 0.00 | 1 | 1009.8 |
| 20260831105017 | 51 | 245 | 0.0 | 0.0 | 0.00 | 0.01 | 0.00 | 1 | 1009.7 |
| 20260831104519 | 51 | 245 | 0.0 | 0.0 | 0.00 | 0.01 | 0.00 | 1 | 1009.7 |
| 20260831104014 | 51 | 245 | 0.0 | 0.0 | 0.00 | 0.01 | 0.00 | 1 | 1009.7 |
| 20260831103512 | 52 | 245 | 0.0 | 0.0 | 0.00 | 0.01 | 0.00 | 1 | 1009.8 |
| 20260831103010 | 52 | 245 | 0.0 | 0.0 | 0.00 | 0.01 | 0.00 | 1 | 1009.7 |
| 20260831102509 | 52 | 245 | 0.0 | 0.0 | 0.00 | 0.01 | 0.00 | 1 | 1009.8 |
| 20260831102008 | 52 | 245 | 0.0 | 0.0 | 0.00 | 0.01 | 0.00 | 1 | 1009.8 |
| 20260831101512 | 52 | 245 | 0.0 | 0.0 | 0.00 | 0.01 | 0.00 | 1 | 1009.7 |
| 20260831101005 | 52 | 245 | 0.0 | 3.0 | 0.00 | 0.01 | 0.00 | 1 | 1009.6 |
| 20260831100506 | 51 | 245 | 0.0 | 4.0 | 0.00 | 0.01 | 0.00 | 1 | 1009.6 |
| 20260831100002 | 51 | 245 | 0.0 | 3.0 | 0.00 | 0.01 | 0.00 | 1 | 1009.5 |
| 20260831095501 | 52 | 245 | 0.0 | 0.0 | 0.00 | 0.01 | 0.00 | 1 | 1009.4 |
| 20260831095100 | 52 | 245 | 0.0 | 0.0 | 0.00 | 0.01 | 0.00 | 1 | 1009.4 |
| 20260831094558 | 53 | 245 | 0.0 | 0.0 | 0.00 | 0.01 | 0.00 | 1 | 1009.4 |
| 20260831094057 | 52 | 245 | 0.0 | 0.0 | 0.00 | 0.01 | 0.00 | 1 | 1009.4 |
| 20260831093558 | 52 | 245 | 0.0 | 0.0 | 0.00 | 0.01 | 0.00 | 1 | 1009.3 |
| 20260831093057 | 52 | 245 | 0.0 | 0.0 | 0.00 | 0.01 | 0.00 | 1 | 1009.2 |